Time;durP1;ratioP1;P1;durP2;ratioP2;P2;SDS_P1;SDS_P2;PMS_P1;PMS_P2;Temp;Humidity;BMP_temperature;BMP_pressure;BME280_temperature;BME280_humidity;BME280_pressure;Samples;Min_cycle;Max_cycle;Signal;HPM_P1;HPM_P2
2022/12/17 13:06:49;;;;;;;42.17;19.02;;;2.00;99.90;;;;;;5039980;28;20517;-37
2022/12/17 13:09:15;;;;;;;38.88;18.88;;;1.80;99.90;;;;;;5035889;28;20076;-37
2022/12/17 13:11:43;;;;;;;38.83;18.30;;;1.60;99.90;;;;;;5035996;28;20181;-34
2022/12/17 13:14:20;;;;;;;32.63;15.45;;;1.50;99.90;;;;;;5039057;28;20049;-36
2022/12/17 13:16:45;;;;;;;43.15;18.48;;;1.40;99.90;;;;;;5040143;28;20102;-37
2022/12/17 13:19:30;;;;;;;40.67;17.88;;;1.30;99.90;;;;;;5042689;28;20037;-36
2022/12/17 13:22:15;;;;;;;39.05;17.38;;;1.30;99.90;;;;;;5039386;28;20127;-36
2022/12/17 13:24:50;;;;;;;46.13;19.27;;;1.60;99.90;;;;;;5024263;28;20132;-37
2022/12/17 13:27:39;;;;;;;41.13;18.17;;;1.70;99.90;;;;;;5044595;28;20049;-37
2022/12/17 13:30:21;;;;;;;37.42;16.70;;;1.90;99.90;;;;;;5041448;28;20512;-37
2022/12/17 13:32:58;;;;;;;42.33;18.38;;;2.00;99.90;;;;;;5029633;28;20033;-37
2022/12/17 13:35:47;;;;;;;39.90;18.70;;;1.80;99.90;;;;;;5034246;28;20052;-37
2022/12/17 13:38:29;;;;;;;36.40;15.95;;;1.60;99.90;;;;;;5034694;28;20891;-37
2022/12/17 13:41:07;;;;;;;47.05;19.05;;;1.50;99.90;;;;;;5038662;28;20072;-37
2022/12/17 13:43:57;;;;;;;42.72;19.75;;;1.30;99.90;;;;;;5036991;28;20045;-37
2022/12/17 13:46:24;;;;;;;29.50;12.88;;;1.20;99.90;;;;;;5040521;28;20110;-37
2022/12/17 13:49:02;;;;;;;41.65;18.30;;;1.20;99.90;;;;;;5044242;28;20048;-36
2022/12/17 13:51:30;;;;;;;47.22;19.55;;;1.10;99.90;;;;;;5044047;28;20094;-37
2022/12/17 13:54:01;;;;;;;39.38;17.17;;;1.00;99.90;;;;;;5044961;28;20034;-37
2022/12/17 13:56:30;;;;;;;44.53;18.80;;;0.90;99.90;;;;;;5042143;28;20062;-37
2022/12/17 13:58:58;;;;;;;40.15;17.10;;;0.80;99.90;;;;;;5040458;28;20037;-36
2022/12/17 14:01:27;;;;;;;44.17;18.45;;;0.80;99.90;;;;;;5039680;28;20884;-37
2022/12/17 14:03:57;;;;;;;45.88;18.05;;;0.70;99.90;;;;;;5042711;28;20042;-37
2022/12/17 14:06:33;;;;;;;42.95;17.75;;;0.70;99.90;;;;;;5040166;28;20041;-36
2022/12/17 14:09:00;;;;;;;42.90;17.35;;;0.70;99.90;;;;;;5045074;28;20037;-36
2022/12/17 14:14:23;;;;;;;32.28;11.95;;;0.60;99.90;;;;;;5041070;28;20513;-37
2022/12/17 14:16:48;;;;;;;40.47;16.60;;;0.60;99.90;;;;;;5039582;28;20041;-37
2022/12/17 14:19:14;;;;;;;45.42;18.77;;;0.60;99.90;;;;;;5039841;28;20481;-37
2022/12/17 14:21:40;;;;;;;43.05;16.25;;;0.50;99.90;;;;;;5040855;28;20029;-37
2022/12/17 14:24:10;;;;;;;34.28;14.07;;;0.50;99.90;;;;;;5045038;28;20428;-37
2022/12/17 14:26:56;;;;;;;32.85;14.90;;;0.50;99.90;;;;;;5040971;28;20041;-37
2022/12/17 14:29:24;;;;;;;41.72;16.30;;;0.40;99.90;;;;;;5040645;28;20036;-37
2022/12/17 14:32:02;;;;;;;42.13;17.55;;;0.30;99.90;;;;;;5034006;28;20037;-37
2022/12/17 14:34:28;;;;;;;42.45;18.10;;;0.30;99.90;;;;;;5039280;28;20072;-36
2022/12/17 14:36:59;;;;;;;30.02;11.90;;;0.20;99.90;;;;;;5032299;28;20960;-36
2022/12/17 14:39:30;;;;;;;42.15;17.35;;;0.20;99.90;;;;;;5036062;28;20647;-37
2022/12/17 14:45:12;;;;;;;37.75;15.40;;;0.10;99.90;;;;;;5040045;28;20438;-37
2022/12/17 14:47:37;;;;;;;42.22;16.73;;;0.00;99.90;;;;;;5039702;28;20169;-39
2022/12/17 14:50:11;;;;;;;40.97;15.98;;;-0.10;99.90;;;;;;5035559;28;20495;-37
2022/12/17 14:52:54;;;;;;;37.05;15.27;;;-0.10;99.90;;;;;;5037470;28;20037;-37
2022/12/17 14:55:32;;;;;;;33.05;12.75;;;-0.20;99.90;;;;;;5033658;28;20071;-37
2022/12/17 14:58:07;;;;;;;40.55;16.60;;;-0.20;99.90;;;;;;5038112;28;20071;-37
2022/12/17 15:00:36;;;;;;;42.00;15.73;;;-0.20;99.90;;;;;;5037415;28;20048;-37
2022/12/17 15:03:02;;;;;;;34.60;14.27;;;-0.20;99.90;;;;;;5036076;28;20045;-37
2022/12/17 15:05:28;;;;;;;43.20;16.67;;;-0.30;99.90;;;;;;5034558;28;20036;-37
2022/12/17 15:07:54;;;;;;;39.75;15.43;;;-0.30;99.90;;;;;;5031131;28;20131;-37
2022/12/17 15:10:20;;;;;;;48.25;17.88;;;-0.30;99.90;;;;;;5029713;28;20128;-36
2022/12/17 15:12:50;;;;;;;27.92;11.50;;;-0.40;99.90;;;;;;5035147;28;20116;-39
2022/12/17 15:15:16;;;;;;;42.40;15.63;;;-0.50;99.90;;;;;;5032465;28;20041;-37
2022/12/17 15:17:42;;;;;;;37.97;14.93;;;-0.50;99.90;;;;;;5017384;28;20044;-37
2022/12/17 15:20:19;;;;;;;35.33;14.77;;;-0.50;99.90;;;;;;5033269;28;20040;-37
2022/12/17 15:22:45;;;;;;;34.97;12.30;;;-0.60;99.90;;;;;;5032357;28;20086;-37
2022/12/17 15:25:14;;;;;;;40.33;16.42;;;-0.60;99.90;;;;;;5041702;28;20539;-37
2022/12/17 15:27:39;;;;;;;39.58;16.73;;;-0.70;99.90;;;;;;5031899;28;20116;-37
2022/12/17 15:30:06;;;;;;;44.35;16.58;;;-0.80;99.90;;;;;;5040123;28;20903;-37
2022/12/17 15:32:31;;;;;;;42.30;15.45;;;-0.80;99.90;;;;;;5035250;28;20546;-37
2022/12/17 15:34:57;;;;;;;44.95;15.77;;;-0.80;99.90;;;;;;5034265;28;20128;-37
2022/12/17 15:37:24;;;;;;;36.65;15.20;;;-0.90;99.90;;;;;;5036006;28;20060;-36
2022/12/17 15:39:50;;;;;;;42.83;17.23;;;-0.90;99.90;;;;;;5040339;28;20505;-36
2022/12/17 15:44:59;;;;;;;46.40;17.65;;;-0.90;99.90;;;;;;5042242;28;20044;-36
2022/12/17 15:47:25;;;;;;;40.08;16.08;;;-0.90;99.90;;;;;;5036399;28;20313;-36
2022/12/17 15:49:51;;;;;;;44.88;16.70;;;-0.90;99.90;;;;;;5038551;28;20047;-37
2022/12/17 15:52:16;;;;;;;47.38;15.73;;;-0.80;99.90;;;;;;5014175;28;20033;-36
2022/12/17 15:54:42;;;;;;;42.55;15.20;;;-0.80;99.90;;;;;;5013138;28;20037;-37
2022/12/17 15:57:08;;;;;;;26.42;9.02;;;-0.80;99.90;;;;;;5034544;28;20401;-36
2022/12/17 15:59:34;;;;;;;41.30;16.58;;;-0.80;99.90;;;;;;5029660;28;20072;-36
2022/12/17 16:02:00;;;;;;;41.10;15.65;;;-0.80;99.90;;;;;;5040407;28;20110;-36
2022/12/17 16:04:25;;;;;;;42.03;16.73;;;-0.90;99.90;;;;;;5038987;28;20037;-36
2022/12/17 16:06:51;;;;;;;41.42;15.40;;;-0.90;99.90;;;;;;5029293;28;20489;-38
2022/12/17 16:09:17;;;;;;;46.60;15.95;;;-0.90;99.90;;;;;;5014588;28;20472;-37
2022/12/17 16:11:42;;;;;;;40.85;15.18;;;-1.00;99.90;;;;;;5016249;28;20044;-37
2022/12/17 16:14:08;;;;;;;44.97;16.10;;;-1.00;99.90;;;;;;5025311;28;20055;-37
2022/12/17 16:16:34;;;;;;;38.00;15.38;;;-1.00;99.90;;;;;;5028079;28;20049;-37
2022/12/17 16:19:00;;;;;;;40.45;15.40;;;-1.00;99.90;;;;;;5031964;28;20063;-36
2022/12/17 16:21:27;;;;;;;40.75;15.95;;;-1.10;99.90;;;;;;5033450;28;20052;-36
2022/12/17 16:23:53;;;;;;;45.75;16.25;;;-1.10;99.90;;;;;;5030694;28;20036;-37
2022/12/17 16:26:18;;;;;;;37.45;14.90;;;-1.10;99.90;;;;;;4996553;28;20704;-36
2022/12/17 16:28:44;;;;;;;41.78;16.30;;;-1.10;99.90;;;;;;5031946;28;20412;-36
2022/12/17 16:31:13;;;;;;;41.38;14.13;;;-1.20;99.90;;;;;;5032092;28;20106;-37
2022/12/17 16:33:40;;;;;;;40.95;14.55;;;-1.20;99.90;;;;;;5028696;28;20056;-36
2022/12/17 16:36:08;;;;;;;34.42;13.98;;;-1.20;99.90;;;;;;5032594;28;20041;-36
2022/12/17 16:38:33;;;;;;;35.92;14.98;;;-1.20;99.90;;;;;;5035306;28;20044;-36
2022/12/17 16:41:01;;;;;;;39.40;14.45;;;-1.30;99.90;;;;;;5031125;28;20402;-39
2022/12/17 16:43:31;;;;;;;42.63;15.95;;;-1.30;99.90;;;;;;5033252;28;20037;-41
2022/12/17 16:45:57;;;;;;;38.75;14.45;;;-1.30;99.90;;;;;;5034445;28;20040;-43
2022/12/17 16:48:23;;;;;;;37.67;15.25;;;-1.30;99.90;;;;;;5035530;28;20049;-38
2022/12/17 16:50:50;;;;;;;38.90;15.27;;;-1.40;99.90;;;;;;5035429;28;20045;-45
2022/12/17 16:53:17;;;;;;;43.03;14.73;;;-1.40;99.90;;;;;;5033563;28;20615;-45
2022/12/17 16:55:45;;;;;;;42.22;15.35;;;-1.40;99.90;;;;;;5033719;28;20045;-44
2022/12/17 16:58:12;;;;;;;42.60;15.63;;;-1.40;99.90;;;;;;5029083;28;20049;-40
2022/12/17 17:00:37;;;;;;;42.58;15.98;;;-1.50;99.90;;;;;;5035032;28;20159;-39
2022/12/17 17:03:04;;;;;;;42.35;15.55;;;-1.50;99.90;;;;;;5033757;28;20049;-39
2022/12/17 17:05:35;;;;;;;39.85;14.80;;;-1.50;99.90;;;;;;5040855;28;20409;-46
2022/12/17 17:08:02;;;;;;;42.53;15.70;;;-1.50;99.90;;;;;;5041655;28;20037;-45
2022/12/17 17:10:28;;;;;;;40.28;14.60;;;-1.50;99.90;;;;;;5040062;28;20049;-38
2022/12/17 17:12:55;;;;;;;37.50;14.18;;;-1.50;99.90;;;;;;5035214;28;20037;-38
2022/12/17 17:15:24;;;;;;;38.65;13.77;;;-1.50;99.90;;;;;;5035814;28;20395;-36
2022/12/17 17:17:50;;;;;;;39.30;15.65;;;-1.50;99.90;;;;;;5033471;28;20244;-42
2022/12/17 17:20:15;;;;;;;40.85;17.13;;;-1.50;99.90;;;;;;5035365;28;20049;-37
2022/12/17 17:22:41;;;;;;;42.65;16.02;;;-1.50;99.90;;;;;;5036617;28;20490;-42
2022/12/17 17:25:07;;;;;;;40.08;15.73;;;-1.50;99.90;;;;;;5014279;28;20048;-44
2022/12/17 17:27:33;;;;;;;42.38;15.63;;;-1.50;99.90;;;;;;5019465;28;20037;-41
2022/12/17 17:29:58;;;;;;;42.00;14.90;;;-1.50;99.90;;;;;;5038045;28;20045;-39
2022/12/17 17:32:24;;;;;;;43.60;16.67;;;-1.50;99.90;;;;;;5034613;28;20266;-43
2022/12/17 17:34:50;;;;;;;40.15;15.00;;;-1.50;99.90;;;;;;5031793;28;20042;-41
2022/12/17 17:37:16;;;;;;;44.20;16.17;;;-1.50;99.90;;;;;;5033212;28;20060;-37
2022/12/17 17:39:42;;;;;;;50.50;15.57;;;-1.50;99.90;;;;;;5034880;28;20204;-37
2022/12/17 17:42:08;;;;;;;42.22;14.52;;;-1.50;99.90;;;;;;5030702;28;20056;-37
2022/12/17 17:44:34;;;;;;;40.45;14.32;;;-1.50;99.90;;;;;;5032324;28;20390;-37
2022/12/17 17:47:00;;;;;;;45.67;16.27;;;-1.50;99.90;;;;;;5036935;28;20110;-37
2022/12/17 17:49:26;;;;;;;46.35;15.63;;;-1.50;99.90;;;;;;5035970;28;20051;-37
2022/12/17 17:51:52;;;;;;;42.63;14.13;;;-1.50;99.90;;;;;;5039373;28;20041;-37
2022/12/17 17:54:17;;;;;;;40.47;15.25;;;-1.50;99.90;;;;;;5037190;28;20051;-37
2022/12/17 17:56:43;;;;;;;45.83;15.10;;;-1.60;99.90;;;;;;5036360;28;20501;-36
2022/12/17 17:59:12;;;;;;;44.95;16.45;;;-1.60;99.90;;;;;;5034445;28;20076;-37
2022/12/17 18:01:41;;;;;;;47.90;16.73;;;-1.60;99.90;;;;;;5031587;28;20045;-36
2022/12/17 18:04:09;;;;;;;38.88;16.02;;;-1.60;99.90;;;;;;5032595;28;20289;-36
2022/12/17 18:06:39;;;;;;;40.17;15.95;;;-1.60;99.90;;;;;;5030067;28;20094;-37
2022/12/17 18:09:06;;;;;;;36.20;13.45;;;-1.60;99.90;;;;;;5035391;28;20048;-38
2022/12/17 18:11:33;;;;;;;31.70;10.35;;;-1.60;99.90;;;;;;5033539;28;20048;-36
2022/12/17 18:14:00;;;;;;;28.75;11.60;;;-1.60;99.90;;;;;;5038676;28;20589;-36
2022/12/17 18:16:27;;;;;;;42.75;15.23;;;-1.60;99.90;;;;;;5039180;28;20080;-38
2022/12/17 18:18:58;;;;;;;41.03;16.40;;;-1.60;99.90;;;;;;5038529;28;20033;-39
2022/12/17 18:21:25;;;;;;;41.47;15.07;;;-1.60;99.90;;;;;;5042974;28;20033;-39
2022/12/17 18:23:55;;;;;;;43.30;16.02;;;-1.60;99.90;;;;;;5035573;28;20071;-39
2022/12/17 18:26:22;;;;;;;40.67;15.13;;;-1.70;99.90;;;;;;5040896;28;20881;-39
2022/12/17 18:28:48;;;;;;;38.45;14.00;;;-1.70;99.90;;;;;;5039313;28;20037;-39
2022/12/17 18:31:17;;;;;;;39.78;16.55;;;-1.70;99.90;;;;;;5036200;28;20043;-39
2022/12/17 18:33:46;;;;;;;47.00;16.10;;;-1.70;99.90;;;;;;5029513;28;20083;-39
2022/12/17 18:36:15;;;;;;;38.70;14.25;;;-1.80;99.90;;;;;;5036754;28;20124;-38
2022/12/17 18:38:41;;;;;;;37.03;14.07;;;-1.70;99.90;;;;;;5034738;28;20048;-39
2022/12/17 18:44:00;;;;;;;33.78;12.35;;;-1.80;99.90;;;;;;5041726;28;20040;-40
2022/12/17 18:46:27;;;;;;;40.28;14.80;;;-1.80;99.90;;;;;;5041336;28;20042;-39
2022/12/17 18:48:55;;;;;;;37.03;13.93;;;-1.90;99.90;;;;;;5047545;28;20620;-40
2022/12/17 18:51:21;;;;;;;41.80;15.90;;;-1.90;99.90;;;;;;5041277;28;20044;-39
2022/12/17 18:53:48;;;;;;;36.83;15.75;;;-1.90;99.90;;;;;;5038319;28;20052;-39
2022/12/17 18:56:13;;;;;;;32.60;12.70;;;-1.90;99.90;;;;;;5035122;28;20041;-37
2022/12/17 18:58:39;;;;;;;34.53;13.75;;;-1.90;99.90;;;;;;5036174;28;20052;-38
2022/12/17 19:01:05;;;;;;;40.47;14.90;;;-1.90;99.90;;;;;;5039111;28;20041;-38
2022/12/17 19:03:31;;;;;;;48.13;16.50;;;-1.80;99.90;;;;;;5034457;28;20090;-37
2022/12/17 19:05:58;;;;;;;39.40;16.63;;;-1.90;99.90;;;;;;5021981;28;20045;-37
2022/12/17 19:08:24;;;;;;;41.85;16.13;;;-1.90;99.90;;;;;;5041146;28;20151;-39
2022/12/17 19:10:52;;;;;;;34.42;13.00;;;-1.90;99.90;;;;;;5038781;28;20390;-39
2022/12/17 19:13:18;;;;;;;41.67;16.33;;;-1.90;99.90;;;;;;5041502;28;20041;-45
2022/12/17 19:15:44;;;;;;;42.90;15.85;;;-1.90;99.90;;;;;;5040635;28;20099;-44
2022/12/17 19:18:09;;;;;;;43.00;17.27;;;-1.90;99.90;;;;;;5038918;28;20938;-37
2022/12/17 19:20:35;;;;;;;27.05;9.93;;;-1.90;99.90;;;;;;5043609;28;20041;-47
2022/12/17 19:23:01;;;;;;;43.80;15.75;;;-1.90;99.90;;;;;;5046450;28;20072;-45
2022/12/17 19:25:26;;;;;;;27.10;11.60;;;-1.90;99.90;;;;;;5044512;28;20065;-44
2022/12/17 19:27:52;;;;;;;35.72;14.35;;;-2.00;99.90;;;;;;5045373;28;20116;-42
2022/12/17 19:30:18;;;;;;;39.30;16.38;;;-2.00;99.90;;;;;;5040251;28;20033;-42
2022/12/17 19:32:43;;;;;;;43.20;15.77;;;-1.90;99.90;;;;;;5040225;28;20151;-44
2022/12/17 19:35:09;;;;;;;63.83;18.92;;;-1.90;99.90;;;;;;5040393;28;20033;-45
2022/12/17 19:37:35;;;;;;;49.03;17.02;;;-1.90;99.90;;;;;;5023911;28;20114;-38
2022/12/17 19:40:00;;;;;;;41.45;14.85;;;-1.90;99.90;;;;;;5038890;28;20483;-42
2022/12/17 19:42:27;;;;;;;45.45;15.73;;;-1.90;99.90;;;;;;5035534;28;20037;-41
2022/12/17 19:44:54;;;;;;;44.53;16.70;;;-1.90;99.90;;;;;;5041219;28;20029;-44
2022/12/17 19:47:21;;;;;;;36.58;14.27;;;-2.00;99.90;;;;;;5036463;28;20537;-38
2022/12/17 19:49:47;;;;;;;39.00;14.10;;;-2.00;99.90;;;;;;5036846;28;20041;-48
2022/12/17 19:52:12;;;;;;;40.85;15.38;;;-2.00;99.90;;;;;;5040709;28;20052;-47
2022/12/17 19:54:38;;;;;;;41.08;15.60;;;-2.00;99.90;;;;;;5046095;28;20116;-43
2022/12/17 19:57:04;;;;;;;38.88;16.23;;;-2.00;99.90;;;;;;5042065;28;20060;-42
2022/12/17 19:59:29;;;;;;;39.90;13.95;;;-2.00;99.90;;;;;;5035062;28;20409;-41
2022/12/17 20:01:56;;;;;;;33.85;13.52;;;-2.10;99.90;;;;;;5035616;28;20053;-37
2022/12/17 20:04:21;;;;;;;42.28;14.45;;;-2.10;99.90;;;;;;5030298;28;20084;-44
2022/12/17 20:06:47;;;;;;;36.58;15.23;;;-2.10;99.90;;;;;;5032097;28;20037;-42
2022/12/17 20:09:14;;;;;;;39.38;15.30;;;-2.10;99.90;;;;;;5031553;28;20036;-43
2022/12/17 20:11:40;;;;;;;46.67;16.27;;;-2.10;99.90;;;;;;5035969;28;20041;-35
2022/12/17 20:14:21;;;;;;;43.05;15.27;;;-2.20;99.90;;;;;;5042269;28;20128;-37
2022/12/17 20:16:54;;;;;;;42.58;17.05;;;-2.20;99.90;;;;;;5039656;28;20041;-36
2022/12/17 20:19:23;;;;;;;44.65;16.85;;;-2.20;99.90;;;;;;5019430;28;31102;-35
2022/12/17 20:21:49;;;;;;;39.40;16.25;;;-2.20;99.90;;;;;;4998129;28;20517;-36
2022/12/17 20:24:16;;;;;;;47.47;17.05;;;-2.20;99.90;;;;;;5010766;28;20061;-37
2022/12/17 20:26:43;;;;;;;42.70;16.00;;;-2.10;99.90;;;;;;5003864;28;20234;-36
2022/12/17 20:29:09;;;;;;;33.78;12.27;;;-2.10;99.90;;;;;;4985093;28;20057;-38
2022/12/17 20:31:36;;;;;;;38.80;16.92;;;-2.10;99.90;;;;;;4997903;28;20748;-36
2022/12/17 20:34:06;;;;;;;39.03;14.95;;;-2.10;99.90;;;;;;4997314;28;20041;-37
2022/12/17 20:36:32;;;;;;;43.55;16.17;;;-2.20;99.90;;;;;;4993396;28;20038;-37
2022/12/17 20:38:59;;;;;;;35.88;14.20;;;-2.20;99.90;;;;;;4998296;28;20042;-36
2022/12/17 20:41:27;;;;;;;46.55;15.88;;;-2.20;99.90;;;;;;5001678;28;20034;-35
2022/12/17 20:43:53;;;;;;;33.72;14.52;;;-2.20;99.90;;;;;;4997378;28;20499;-36
2022/12/17 20:46:21;;;;;;;42.58;15.30;;;-2.20;99.90;;;;;;4998471;28;20046;-36
2022/12/17 20:48:46;;;;;;;33.10;13.77;;;-2.30;99.90;;;;;;4998800;28;20077;-35
2022/12/17 20:51:24;;;;;;;40.60;14.45;;;-2.30;99.90;;;;;;5002956;28;20127;-37
2022/12/17 20:53:51;;;;;;;41.67;15.20;;;-2.20;99.90;;;;;;5000398;28;20038;-36
2022/12/17 20:56:19;;;;;;;38.85;14.40;;;-2.20;99.90;;;;;;5002900;28;20127;-37
2022/12/17 20:58:45;;;;;;;35.90;13.57;;;-2.20;99.90;;;;;;4998945;28;20038;-35
2022/12/17 21:01:20;;;;;;;38.60;15.63;;;-2.20;99.90;;;;;;4999010;28;20052;-36
2022/12/17 21:03:48;;;;;;;41.20;16.50;;;-2.20;99.90;;;;;;5003207;28;20046;-35
2022/12/17 21:06:34;;;;;;;36.60;14.90;;;-2.20;99.90;;;;;;4997708;28;20042;-35
2022/12/17 21:09:00;;;;;;;33.80;11.63;;;-2.20;99.90;;;;;;4992892;28;20034;-35
2022/12/17 21:11:28;;;;;;;44.75;15.00;;;-2.20;99.90;;;;;;4992367;28;20096;-38
2022/12/17 21:13:54;;;;;;;37.22;14.52;;;-2.20;99.90;;;;;;5012781;28;20048;-36
2022/12/17 21:16:22;;;;;;;34.53;14.15;;;-2.20;99.90;;;;;;5021042;28;20128;-36
2022/12/17 21:18:51;;;;;;;36.58;13.77;;;-2.20;99.90;;;;;;5013077;28;20034;-35
2022/12/17 21:21:20;;;;;;;37.20;13.30;;;-2.20;99.90;;;;;;5018815;28;20046;-35
2022/12/17 21:23:47;;;;;;;43.97;15.38;;;-2.20;99.90;;;;;;5015718;28;20045;-36
2022/12/17 21:26:25;;;;;;;26.83;11.00;;;-2.20;99.90;;;;;;5015415;28;20406;-43
2022/12/17 21:28:53;;;;;;;37.13;14.73;;;-2.20;99.90;;;;;;5017431;28;20399;-36
2022/12/17 21:31:21;;;;;;;49.75;16.15;;;-2.30;99.90;;;;;;5017047;28;20076;-35
2022/12/17 21:33:47;;;;;;;35.28;14.57;;;-2.30;99.90;;;;;;5005474;28;20060;-35
2022/12/17 21:36:14;;;;;;;42.17;16.13;;;-2.30;99.90;;;;;;5017115;28;20083;-36
2022/12/17 21:38:41;;;;;;;32.15;11.20;;;-2.30;99.90;;;;;;5020574;28;20037;-36
2022/12/17 21:41:12;;;;;;;40.03;14.90;;;-2.30;99.90;;;;;;5020079;28;20076;-40
2022/12/17 21:43:39;;;;;;;45.00;15.90;;;-2.30;99.90;;;;;;5020420;28;20034;-35
2022/12/17 21:46:07;;;;;;;50.30;18.02;;;-2.30;99.90;;;;;;5017869;28;20053;-36
2022/12/17 21:48:33;;;;;;;46.35;15.98;;;-2.30;99.90;;;;;;5021420;28;20498;-35
2022/12/17 21:50:59;;;;;;;42.90;15.25;;;-2.20;99.90;;;;;;5002654;28;20045;-35
2022/12/17 21:53:24;;;;;;;50.15;17.58;;;-2.30;99.90;;;;;;5019224;28;20041;-37
2022/12/17 21:56:02;;;;;;;47.10;16.15;;;-2.30;99.90;;;;;;5020011;28;20391;-37
2022/12/17 21:58:28;;;;;;;43.17;14.18;;;-2.20;99.90;;;;;;5014516;28;20282;-36
2022/12/17 22:00:54;;;;;;;41.88;13.52;;;-2.30;99.90;;;;;;5016433;28;20038;-35
2022/12/17 22:03:19;;;;;;;43.72;15.88;;;-2.30;99.90;;;;;;5017401;28;20683;-37
2022/12/17 22:05:45;;;;;;;43.17;15.43;;;-2.30;99.90;;;;;;5005447;28;20041;-36
2022/12/17 22:08:11;;;;;;;38.15;14.95;;;-2.30;99.90;;;;;;5023825;28;20470;-38
2022/12/17 22:10:40;;;;;;;47.30;17.48;;;-2.30;99.90;;;;;;5022085;28;20045;-35
2022/12/17 22:15:55;;;;;;;52.05;16.02;;;-2.30;99.90;;;;;;5018299;28;20041;-35
2022/12/17 22:18:21;;;;;;;45.35;15.68;;;-2.30;99.90;;;;;;5018565;28;20041;-36
2022/12/17 22:21:00;;;;;;;45.53;15.88;;;-2.30;99.90;;;;;;5017182;28;20049;-36
2022/12/17 22:23:26;;;;;;;47.22;15.93;;;-2.40;99.90;;;;;;5023323;28;20072;-38
2022/12/17 22:25:51;;;;;;;42.83;12.98;;;-2.40;99.90;;;;;;5019055;28;20030;-36
2022/12/17 22:28:17;;;;;;;44.80;16.25;;;-2.40;99.90;;;;;;5022136;28;20128;-36
2022/12/17 22:33:27;;;;;;;45.15;16.55;;;-2.40;99.90;;;;;;5025112;28;20041;-35
2022/12/17 22:35:57;;;;;;;40.20;14.55;;;-2.40;99.90;;;;;;5015456;28;20429;-35
2022/12/17 22:38:23;;;;;;;42.47;14.88;;;-2.40;99.90;;;;;;5022998;28;20088;-35
2022/12/17 22:40:49;;;;;;;50.60;16.52;;;-2.50;99.90;;;;;;5019483;28;20049;-35
2022/12/17 22:43:30;;;;;;;35.25;13.10;;;-2.50;99.90;;;;;;5016847;28;20034;-36
2022/12/17 22:46:03;;;;;;;37.05;12.77;;;-2.50;99.90;;;;;;5019716;28;20562;-38
2022/12/17 22:48:33;;;;;;;40.95;13.93;;;-2.60;99.90;;;;;;4978519;28;1130499;-36
2022/12/17 22:51:08;;;;;;;37.20;13.65;;;-2.60;99.90;;;;;;5017999;28;20053;-35
2022/12/17 22:53:33;;;;;;;50.47;16.00;;;-2.60;99.90;;;;;;5016832;28;20042;-35
2022/12/17 22:56:04;;;;;;;40.75;14.55;;;-2.60;99.90;;;;;;5016792;28;20068;-35
2022/12/17 22:58:29;;;;;;;50.03;14.88;;;-2.60;99.90;;;;;;5017093;28;20073;-35
2022/12/17 23:00:55;;;;;;;52.05;15.73;;;-2.50;99.90;;;;;;4984538;28;20654;-36
2022/12/17 23:03:20;;;;;;;49.30;16.83;;;-2.60;99.90;;;;;;4999686;28;20038;-36
2022/12/17 23:05:46;;;;;;;40.92;12.93;;;-2.50;99.90;;;;;;4999624;28;20109;-35
2022/12/17 23:08:12;;;;;;;47.97;16.65;;;-2.50;99.90;;;;;;4994598;28;20035;-37
2022/12/17 23:10:37;;;;;;;39.30;12.75;;;-2.50;99.90;;;;;;5002162;28;20165;-35
2022/12/17 23:13:03;;;;;;;45.65;15.95;;;-2.50;99.90;;;;;;4998222;28;20581;-34
2022/12/17 23:15:33;;;;;;;45.83;14.90;;;-2.60;99.90;;;;;;4996328;28;20026;-35
2022/12/17 23:18:00;;;;;;;48.85;15.52;;;-2.60;99.90;;;;;;4995513;28;20058;-36
2022/12/17 23:20:28;;;;;;;45.60;15.20;;;-2.60;99.90;;;;;;4999006;28;20049;-37
2022/12/17 23:22:54;;;;;;;42.80;14.77;;;-2.60;99.90;;;;;;4997411;28;20479;-42
2022/12/17 23:25:20;;;;;;;47.42;15.80;;;-2.60;99.90;;;;;;4998877;28;20029;-37
2022/12/17 23:27:47;;;;;;;47.03;14.18;;;-2.60;99.90;;;;;;4997117;28;20530;-35
2022/12/17 23:30:15;;;;;;;38.17;14.25;;;-2.60;99.90;;;;;;5002180;28;20033;-35
2022/12/17 23:32:41;;;;;;;45.97;15.18;;;-2.70;99.90;;;;;;4998057;28;20065;-35
2022/12/17 23:35:08;;;;;;;42.90;15.00;;;-2.70;99.90;;;;;;4999184;28;20037;-35
2022/12/17 23:37:34;;;;;;;38.05;14.88;;;-2.70;99.90;;;;;;4997497;28;20735;-34
2022/12/17 23:39:59;;;;;;;47.33;15.32;;;-2.80;99.90;;;;;;4998384;28;20045;-36
2022/12/17 23:42:25;;;;;;;43.40;14.60;;;-2.80;99.90;;;;;;4996261;28;20045;-34
2022/12/17 23:44:51;;;;;;;46.50;14.73;;;-2.80;99.90;;;;;;4995631;28;20730;-35
2022/12/17 23:47:17;;;;;;;43.72;15.27;;;-2.80;99.90;;;;;;4983502;28;20057;-36
2022/12/17 23:49:42;;;;;;;41.42;15.20;;;-2.90;99.90;;;;;;4997507;28;20030;-35
2022/12/17 23:52:08;;;;;;;45.20;15.32;;;-2.90;99.90;;;;;;4992604;28;20076;-35
2022/12/17 23:54:34;;;;;;;42.22;13.68;;;-2.90;99.90;;;;;;5001612;28;20084;-35
2022/12/17 23:57:00;;;;;;;39.25;14.23;;;-2.90;99.90;;;;;;4994766;28;20487;-36
2022/12/17 23:59:25;;;;;;;40.20;13.80;;;-3.00;99.90;;;;;;4961484;28;20088;-40
